DLH8WF EDDB-EDDM
Flight info
| Callsign | DLH8WF |
|---|---|
| Flight time | 0h 54m |
| Altitude | 28000 |
| Route | LUROS4B/06L LUROS Y211 BEBKU Z36 MAREM DCT VESUB T106 TUSTO T108 LANDU LANDU2B |
| Aircraft | A321/M-SDE3FGHIRWY/LB1 |
Departure
| Time | 2026-05-06 18:01 |
|---|---|
| Airport | Berlin Brandenburg Airport (EDDB) |
Arrival
| Time | 2026-05-06 18:55 |
|---|---|
| Airport | Munich Airport (EDDM) |
| Time | Latitude | Longitude | Altitude | Speed | Heading |
|---|---|---|---|---|---|
| 2026-05-06 17:33 | 52.36614 | 13.50444 | 155 ft | 0 kts | 69° |
| 2026-05-06 17:52 | 52.36613 | 13.50442 | 155 ft | 2 kts | 69° |
| 2026-05-06 17:52 | 52.36604 | 13.50404 | 155 ft | 4 kts | 69° |
| 2026-05-06 17:52 | 52.36594 | 13.50362 | 155 ft | 4 kts | 69° |
| 2026-05-06 17:53 | 52.36584 | 13.50321 | 155 ft | 4 kts | 69° |
| 2026-05-06 17:53 | 52.36575 | 13.50281 | 155 ft | 4 kts | 63° |
| 2026-05-06 17:53 | 52.36559 | 13.50255 | 155 ft | 4 kts | 5° |
| 2026-05-06 17:53 | 52.36538 | 13.50260 | 155 ft | 2 kts | 339° |
| 2026-05-06 17:54 | 52.36518 | 13.50273 | 155 ft | 1 kts | 339° |
| 2026-05-06 17:56 | 52.36518 | 13.50272 | 154 ft | 1 kts | 339° |
| 2026-05-06 17:57 | 52.36535 | 13.50262 | 155 ft | 6 kts | 339° |
| 2026-05-06 17:57 | 52.36560 | 13.50246 | 155 ft | 11 kts | 339° |
| 2026-05-06 17:57 | 52.36679 | 13.50169 | 155 ft | 21 kts | 333° |
| 2026-05-06 17:57 | 52.36775 | 13.50016 | 155 ft | 17 kts | 302° |
| 2026-05-06 17:58 | 52.36748 | 13.49821 | 155 ft | 20 kts | 248° |
| 2026-05-06 17:58 | 52.36696 | 13.49605 | 154 ft | 21 kts | 248° |
| 2026-05-06 17:58 | 52.36644 | 13.49385 | 154 ft | 21 kts | 249° |
| 2026-05-06 17:58 | 52.36591 | 13.49155 | 158 ft | 22 kts | 249° |
| 2026-05-06 17:59 | 52.36535 | 13.48918 | 154 ft | 23 kts | 249° |
| 2026-05-06 17:59 | 52.36477 | 13.48676 | 154 ft | 23 kts | 249° |
| 2026-05-06 17:59 | 52.36442 | 13.48441 | 154 ft | 19 kts | 296° |
| 2026-05-06 17:59 | 52.36553 | 13.48348 | 154 ft | 16 kts | 340° |
| 2026-05-06 18:00 | 52.36660 | 13.48281 | 154 ft | 17 kts | 338° |
| 2026-05-06 18:00 | 52.36720 | 13.48296 | 154 ft | 8 kts | 73° |
| 2026-05-06 18:00 | 52.36741 | 13.48383 | 154 ft | 9 kts | 70° |
| 2026-05-06 18:00 | 52.36785 | 13.48568 | 155 ft | 41 kts | 68° |
| 2026-05-06 18:01 | 52.36975 | 13.49368 | 155 ft | 109 kts | 68° |
| 2026-05-06 18:01 | 52.37319 | 13.50816 | 157 ft | 162 kts | 69° |
| 2026-05-06 18:01 | 52.37721 | 13.52463 | 955 ft | 146 kts | 66° |
| 2026-05-06 18:01 | 52.38093 | 13.54040 | 1496 ft | 152 kts | 68° |
| 2026-05-06 18:02 | 52.38495 | 13.55751 | 1704 ft | 171 kts | 68° |
| 2026-05-06 18:02 | 52.38950 | 13.57674 | 1849 ft | 190 kts | 68° |
| 2026-05-06 18:02 | 52.39445 | 13.59774 | 1987 ft | 204 kts | 67° |
| 2026-05-06 18:02 | 52.39973 | 13.62014 | 2113 ft | 219 kts | 68° |
| 2026-05-06 18:03 | 52.40540 | 13.64418 | 2264 ft | 232 kts | 68° |
| 2026-05-06 18:03 | 52.40933 | 13.66090 | 2376 ft | 243 kts | 68° |
| 2026-05-06 18:03 | 52.41757 | 13.69610 | 2868 ft | 251 kts | 69° |
| 2026-05-06 18:03 | 52.42386 | 13.72298 | 3274 ft | 254 kts | 68° |
| 2026-05-06 18:04 | 52.43028 | 13.75036 | 3630 ft | 260 kts | 68° |
| 2026-05-06 18:04 | 52.43689 | 13.77839 | 3982 ft | 266 kts | 68° |
| 2026-05-06 18:04 | 52.44395 | 13.80653 | 4334 ft | 271 kts | 65° |
| 2026-05-06 18:04 | 52.45187 | 13.83472 | 4742 ft | 273 kts | 63° |
| 2026-05-06 18:05 | 52.46015 | 13.86294 | 5129 ft | 276 kts | 63° |
| 2026-05-06 18:05 | 52.46859 | 13.89140 | 5492 ft | 279 kts | 63° |
| 2026-05-06 18:05 | 52.47708 | 13.92026 | 5859 ft | 282 kts | 63° |
| 2026-05-06 18:05 | 52.48562 | 13.94944 | 6217 ft | 286 kts | 63° |
| 2026-05-06 18:06 | 52.49244 | 13.98027 | 6528 ft | 291 kts | 81° |
| 2026-05-06 18:06 | 52.49179 | 14.01295 | 6850 ft | 292 kts | 106° |
| 2026-05-06 18:06 | 52.48337 | 14.04212 | 7184 ft | 290 kts | 130° |
| 2026-05-06 18:06 | 52.46798 | 14.06398 | 7530 ft | 285 kts | 156° |
| 2026-05-06 18:07 | 52.44936 | 14.07340 | 7870 ft | 279 kts | 180° |
| 2026-05-06 18:07 | 52.43022 | 14.07148 | 8232 ft | 275 kts | 191° |
| 2026-05-06 18:07 | 52.41121 | 14.06737 | 8595 ft | 276 kts | 191° |
| 2026-05-06 18:07 | 52.39216 | 14.06329 | 8979 ft | 276 kts | 191° |
| 2026-05-06 18:08 | 52.37306 | 14.05925 | 9344 ft | 277 kts | 191° |
| 2026-05-06 18:08 | 52.35391 | 14.05524 | 9701 ft | 278 kts | 191° |
| 2026-05-06 18:08 | 52.33462 | 14.05122 | 9968 ft | 281 kts | 190° |
| 2026-05-06 18:08 | 52.31461 | 14.04696 | 10082 ft | 300 kts | 190° |
| 2026-05-06 18:09 | 52.29318 | 14.04234 | 10218 ft | 321 kts | 190° |
| 2026-05-06 18:09 | 52.27057 | 14.03752 | 10485 ft | 333 kts | 190° |
| 2026-05-06 18:09 | 52.24737 | 14.03268 | 11023 ft | 337 kts | 190° |
| 2026-05-06 18:09 | 52.22397 | 14.02787 | 11622 ft | 340 kts | 189° |
| 2026-05-06 18:10 | 52.20841 | 14.02468 | 12008 ft | 342 kts | 189° |
| 2026-05-06 18:10 | 52.18475 | 14.01978 | 12611 ft | 344 kts | 190° |
| 2026-05-06 18:10 | 52.16087 | 14.01480 | 13199 ft | 347 kts | 189° |
| 2026-05-06 18:10 | 52.13686 | 14.00980 | 13753 ft | 350 kts | 189° |
| 2026-05-06 18:11 | 52.11261 | 14.00478 | 14268 ft | 352 kts | 189° |
| 2026-05-06 18:11 | 52.08817 | 13.99971 | 14794 ft | 355 kts | 189° |
| 2026-05-06 18:11 | 52.06342 | 13.99753 | 15280 ft | 361 kts | 176° |
| 2026-05-06 18:11 | 52.03874 | 14.00699 | 15785 ft | 367 kts | 166° |
| 2026-05-06 18:12 | 52.01431 | 14.01943 | 16298 ft | 370 kts | 165° |
| 2026-05-06 18:12 | 51.98971 | 14.03214 | 16812 ft | 372 kts | 165° |
| 2026-05-06 18:12 | 51.96497 | 14.04495 | 17321 ft | 375 kts | 165° |
| 2026-05-06 18:12 | 51.94052 | 14.05762 | 17812 ft | 377 kts | 165° |
| 2026-05-06 18:13 | 51.91528 | 14.07071 | 18254 ft | 379 kts | 165° |
| 2026-05-06 18:13 | 51.89064 | 14.08343 | 18738 ft | 379 kts | 165° |
| 2026-05-06 18:13 | 51.86545 | 14.09642 | 19192 ft | 380 kts | 165° |
| 2026-05-06 18:13 | 51.84025 | 14.10947 | 19623 ft | 382 kts | 165° |
| 2026-05-06 18:14 | 51.81488 | 14.12264 | 20062 ft | 384 kts | 165° |
| 2026-05-06 18:14 | 51.78935 | 14.13593 | 20476 ft | 385 kts | 165° |
| 2026-05-06 18:14 | 51.76407 | 14.14913 | 20872 ft | 387 kts | 165° |
| 2026-05-06 18:14 | 51.73769 | 14.15934 | 21253 ft | 385 kts | 178° |
| 2026-05-06 18:15 | 51.71116 | 14.15685 | 21627 ft | 382 kts | 195° |
| 2026-05-06 18:15 | 51.68587 | 14.14424 | 22030 ft | 382 kts | 200° |
| 2026-05-06 18:15 | 51.66056 | 14.13046 | 22430 ft | 384 kts | 200° |
| 2026-05-06 18:15 | 51.63524 | 14.11663 | 22818 ft | 386 kts | 200° |
| 2026-05-06 18:16 | 51.60974 | 14.10273 | 23200 ft | 388 kts | 200° |
| 2026-05-06 18:16 | 51.58553 | 14.08959 | 23544 ft | 390 kts | 200° |
| 2026-05-06 18:16 | 51.55978 | 14.07567 | 23873 ft | 391 kts | 200° |
| 2026-05-06 18:16 | 51.53391 | 14.06174 | 24216 ft | 393 kts | 200° |
| 2026-05-06 18:17 | 51.50792 | 14.04780 | 24542 ft | 394 kts | 200° |
| 2026-05-06 18:17 | 51.48190 | 14.03384 | 24889 ft | 395 kts | 200° |
| 2026-05-06 18:17 | 51.45578 | 14.01979 | 25212 ft | 397 kts | 200° |
| 2026-05-06 18:17 | 51.43002 | 14.00593 | 25517 ft | 398 kts | 200° |
| 2026-05-06 18:18 | 51.40407 | 13.99198 | 25815 ft | 400 kts | 200° |
| 2026-05-06 18:18 | 51.37757 | 13.97780 | 26138 ft | 402 kts | 200° |
| 2026-05-06 18:18 | 51.35098 | 13.96358 | 26452 ft | 403 kts | 200° |
| 2026-05-06 18:18 | 51.32434 | 13.94936 | 26770 ft | 405 kts | 200° |
| 2026-05-06 18:19 | 51.29785 | 13.93523 | 27081 ft | 406 kts | 200° |
| 2026-05-06 18:19 | 51.27097 | 13.92096 | 27393 ft | 408 kts | 200° |
| 2026-05-06 18:19 | 51.24399 | 13.90664 | 27688 ft | 409 kts | 200° |
| 2026-05-06 18:19 | 51.22452 | 13.89628 | 27762 ft | 408 kts | 200° |
| 2026-05-06 18:20 | 51.19808 | 13.88226 | 27782 ft | 398 kts | 200° |
| 2026-05-06 18:20 | 51.17160 | 13.86822 | 27783 ft | 395 kts | 200° |
| 2026-05-06 18:20 | 51.14580 | 13.85456 | 27783 ft | 395 kts | 200° |
| 2026-05-06 18:20 | 51.11975 | 13.84077 | 27783 ft | 394 kts | 200° |
| 2026-05-06 18:21 | 51.09358 | 13.82692 | 27785 ft | 401 kts | 200° |
| 2026-05-06 18:21 | 51.06669 | 13.81270 | 27785 ft | 410 kts | 200° |
| 2026-05-06 18:21 | 51.03934 | 13.79828 | 27784 ft | 419 kts | 200° |
| 2026-05-06 18:21 | 51.01148 | 13.78362 | 27782 ft | 426 kts | 200° |
| 2026-05-06 18:22 | 50.98311 | 13.76869 | 27769 ft | 432 kts | 200° |
| 2026-05-06 18:22 | 50.95450 | 13.75366 | 27777 ft | 435 kts | 200° |
| 2026-05-06 18:22 | 50.92569 | 13.73857 | 27774 ft | 436 kts | 200° |
| 2026-05-06 18:22 | 50.89694 | 13.72355 | 27770 ft | 436 kts | 200° |
| 2026-05-06 18:23 | 50.86814 | 13.70851 | 27768 ft | 435 kts | 200° |
| 2026-05-06 18:23 | 50.83933 | 13.69347 | 27766 ft | 435 kts | 200° |
| 2026-05-06 18:23 | 50.81056 | 13.67842 | 27760 ft | 435 kts | 200° |
| 2026-05-06 18:23 | 50.78177 | 13.66338 | 27759 ft | 435 kts | 200° |
| 2026-05-06 18:24 | 50.75302 | 13.64844 | 27753 ft | 436 kts | 200° |
| 2026-05-06 18:24 | 50.72419 | 13.63353 | 27755 ft | 436 kts | 200° |
| 2026-05-06 18:24 | 50.69539 | 13.61870 | 27757 ft | 435 kts | 200° |
| 2026-05-06 18:24 | 50.66659 | 13.60410 | 27758 ft | 435 kts | 200° |
| 2026-05-06 18:25 | 50.63769 | 13.58965 | 27758 ft | 435 kts | 199° |
| 2026-05-06 18:25 | 50.60878 | 13.57531 | 27755 ft | 435 kts | 199° |
| 2026-05-06 18:25 | 50.57989 | 13.56103 | 27757 ft | 436 kts | 199° |
| 2026-05-06 18:25 | 50.55099 | 13.54673 | 27757 ft | 436 kts | 199° |
| 2026-05-06 18:26 | 50.52207 | 13.53238 | 27750 ft | 435 kts | 199° |
| 2026-05-06 18:26 | 50.49314 | 13.51799 | 27754 ft | 435 kts | 199° |
| 2026-05-06 18:26 | 50.46424 | 13.50365 | 27758 ft | 435 kts | 199° |
| 2026-05-06 18:26 | 50.43536 | 13.48935 | 27760 ft | 435 kts | 199° |
| 2026-05-06 18:27 | 50.40651 | 13.47511 | 27763 ft | 435 kts | 199° |
| 2026-05-06 18:27 | 50.37763 | 13.46081 | 27764 ft | 435 kts | 199° |
| 2026-05-06 18:27 | 50.34878 | 13.44653 | 27764 ft | 435 kts | 199° |
| 2026-05-06 18:27 | 50.31993 | 13.43231 | 27763 ft | 435 kts | 199° |
| 2026-05-06 18:28 | 50.29109 | 13.41811 | 27762 ft | 435 kts | 199° |
| 2026-05-06 18:28 | 50.26254 | 13.40408 | 27762 ft | 435 kts | 199° |
| 2026-05-06 18:28 | 50.23333 | 13.38974 | 27761 ft | 435 kts | 199° |
| 2026-05-06 18:28 | 50.20476 | 13.37577 | 27762 ft | 435 kts | 199° |
| 2026-05-06 18:29 | 50.17590 | 13.36170 | 27762 ft | 435 kts | 199° |
| 2026-05-06 18:29 | 50.14701 | 13.34758 | 27763 ft | 435 kts | 199° |
| 2026-05-06 18:29 | 50.11812 | 13.33342 | 27763 ft | 435 kts | 199° |
| 2026-05-06 18:29 | 50.08883 | 13.31911 | 27761 ft | 435 kts | 199° |
| 2026-05-06 18:30 | 50.05995 | 13.30501 | 27763 ft | 435 kts | 199° |
| 2026-05-06 18:30 | 50.03145 | 13.29111 | 27766 ft | 435 kts | 199° |
| 2026-05-06 18:30 | 50.00254 | 13.27708 | 27771 ft | 435 kts | 199° |
| 2026-05-06 18:30 | 49.97365 | 13.26309 | 27773 ft | 435 kts | 199° |
| 2026-05-06 18:31 | 49.94477 | 13.24913 | 27772 ft | 435 kts | 199° |
| 2026-05-06 18:31 | 49.91585 | 13.23511 | 27772 ft | 434 kts | 199° |
| 2026-05-06 18:31 | 49.88699 | 13.22113 | 27761 ft | 434 kts | 199° |
| 2026-05-06 18:31 | 49.85818 | 13.20722 | 27764 ft | 434 kts | 199° |
| 2026-05-06 18:32 | 49.82932 | 13.19332 | 27766 ft | 434 kts | 199° |
| 2026-05-06 18:32 | 49.80053 | 13.17949 | 27767 ft | 434 kts | 199° |
| 2026-05-06 18:32 | 49.77171 | 13.16562 | 27767 ft | 433 kts | 199° |
| 2026-05-06 18:32 | 49.74292 | 13.15177 | 27766 ft | 433 kts | 199° |
| 2026-05-06 18:33 | 49.71410 | 13.13796 | 27768 ft | 433 kts | 199° |
| 2026-05-06 18:33 | 49.68530 | 13.12419 | 27766 ft | 433 kts | 199° |
| 2026-05-06 18:33 | 49.65654 | 13.11043 | 27764 ft | 432 kts | 199° |
| 2026-05-06 18:33 | 49.62838 | 13.09701 | 27749 ft | 413 kts | 199° |
| 2026-05-06 18:34 | 49.60156 | 13.08425 | 27749 ft | 394 kts | 199° |
| 2026-05-06 18:34 | 49.57592 | 13.07205 | 27616 ft | 379 kts | 199° |
| 2026-05-06 18:34 | 49.55116 | 13.06026 | 27350 ft | 368 kts | 199° |
| 2026-05-06 18:34 | 49.52688 | 13.04868 | 26925 ft | 362 kts | 199° |
| 2026-05-06 18:35 | 49.50277 | 13.03717 | 26559 ft | 369 kts | 199° |
| 2026-05-06 18:35 | 49.47753 | 13.02507 | 26212 ft | 390 kts | 199° |
| 2026-05-06 18:35 | 49.45103 | 13.01237 | 25871 ft | 408 kts | 199° |
| 2026-05-06 18:35 | 49.42335 | 12.99895 | 25525 ft | 425 kts | 201° |
| 2026-05-06 18:36 | 49.39581 | 12.98034 | 25186 ft | 439 kts | 206° |
| 2026-05-06 18:36 | 49.36793 | 12.96002 | 24845 ft | 444 kts | 207° |
| 2026-05-06 18:36 | 49.34051 | 12.94001 | 24573 ft | 427 kts | 207° |
| 2026-05-06 18:36 | 49.31430 | 12.92092 | 24439 ft | 403 kts | 207° |
| 2026-05-06 18:37 | 49.28999 | 12.90327 | 24185 ft | 371 kts | 207° |
| 2026-05-06 18:37 | 49.27481 | 12.89228 | 23859 ft | 357 kts | 207° |
| 2026-05-06 18:37 | 49.24534 | 12.87092 | 23281 ft | 350 kts | 207° |
| 2026-05-06 18:37 | 49.22314 | 12.85482 | 22791 ft | 346 kts | 207° |
| 2026-05-06 18:38 | 49.20176 | 12.83927 | 22292 ft | 343 kts | 207° |
| 2026-05-06 18:38 | 49.18026 | 12.82366 | 21775 ft | 341 kts | 207° |
| 2026-05-06 18:38 | 49.15893 | 12.80820 | 21242 ft | 338 kts | 207° |
| 2026-05-06 18:38 | 49.13774 | 12.79280 | 20737 ft | 336 kts | 207° |
| 2026-05-06 18:39 | 49.11671 | 12.77756 | 20219 ft | 334 kts | 207° |
| 2026-05-06 18:39 | 49.09574 | 12.76242 | 19638 ft | 334 kts | 206° |
| 2026-05-06 18:39 | 49.07464 | 12.74726 | 19012 ft | 336 kts | 206° |
| 2026-05-06 18:40 | 49.03250 | 12.71698 | 17978 ft | 333 kts | 206° |
| 2026-05-06 18:40 | 49.01164 | 12.70197 | 17438 ft | 330 kts | 206° |
| 2026-05-06 18:40 | 48.99095 | 12.68707 | 16890 ft | 328 kts | 206° |
| 2026-05-06 18:40 | 48.97030 | 12.67222 | 16329 ft | 327 kts | 206° |
| 2026-05-06 18:41 | 48.94980 | 12.65751 | 15785 ft | 325 kts | 206° |
| 2026-05-06 18:41 | 48.92934 | 12.64285 | 15246 ft | 324 kts | 206° |
| 2026-05-06 18:41 | 48.90895 | 12.62829 | 14721 ft | 323 kts | 206° |
| 2026-05-06 18:41 | 48.88866 | 12.61383 | 14198 ft | 322 kts | 205° |
| 2026-05-06 18:42 | 48.86840 | 12.59941 | 13687 ft | 321 kts | 205° |
| 2026-05-06 18:42 | 48.84819 | 12.58503 | 13131 ft | 320 kts | 205° |
| 2026-05-06 18:42 | 48.82812 | 12.57077 | 12608 ft | 317 kts | 205° |
| 2026-05-06 18:42 | 48.80824 | 12.55665 | 12140 ft | 313 kts | 205° |
| 2026-05-06 18:43 | 48.78859 | 12.54270 | 11641 ft | 311 kts | 205° |
| 2026-05-06 18:43 | 48.76924 | 12.52887 | 11335 ft | 302 kts | 206° |
| 2026-05-06 18:43 | 48.75071 | 12.51558 | 11219 ft | 289 kts | 206° |
| 2026-05-06 18:43 | 48.73293 | 12.50283 | 11095 ft | 276 kts | 206° |
| 2026-05-06 18:44 | 48.71592 | 12.49064 | 10961 ft | 265 kts | 206° |
| 2026-05-06 18:44 | 48.69959 | 12.47892 | 10849 ft | 254 kts | 206° |
| 2026-05-06 18:44 | 48.68391 | 12.46767 | 10683 ft | 246 kts | 206° |
| 2026-05-06 18:44 | 48.66855 | 12.45665 | 10424 ft | 243 kts | 206° |
| 2026-05-06 18:45 | 48.65334 | 12.44576 | 10112 ft | 242 kts | 206° |
| 2026-05-06 18:45 | 48.63812 | 12.43483 | 9794 ft | 241 kts | 206° |
| 2026-05-06 18:45 | 48.62297 | 12.42404 | 9491 ft | 238 kts | 206° |
| 2026-05-06 18:45 | 48.61306 | 12.41729 | 9323 ft | 234 kts | 206° |
| 2026-05-06 18:46 | 48.59322 | 12.40408 | 8885 ft | 232 kts | 206° |
| 2026-05-06 18:46 | 48.57844 | 12.39434 | 8578 ft | 231 kts | 206° |
| 2026-05-06 18:46 | 48.56386 | 12.38433 | 8261 ft | 228 kts | 213° |
| 2026-05-06 18:46 | 48.55153 | 12.36952 | 7914 ft | 226 kts | 223° |
| 2026-05-06 18:47 | 48.54018 | 12.35313 | 7551 ft | 226 kts | 226° |
| 2026-05-06 18:47 | 48.52948 | 12.33575 | 7229 ft | 225 kts | 228° |
| 2026-05-06 18:47 | 48.51916 | 12.31815 | 7031 ft | 224 kts | 229° |
| 2026-05-06 18:47 | 48.50890 | 12.30046 | 6842 ft | 224 kts | 230° |
| 2026-05-06 18:48 | 48.49865 | 12.28282 | 6647 ft | 223 kts | 229° |
| 2026-05-06 18:48 | 48.48855 | 12.26544 | 6453 ft | 223 kts | 229° |
| 2026-05-06 18:48 | 48.47815 | 12.24762 | 6260 ft | 223 kts | 230° |
| 2026-05-06 18:48 | 48.46791 | 12.23013 | 6061 ft | 222 kts | 230° |
| 2026-05-06 18:49 | 48.45768 | 12.21278 | 5856 ft | 221 kts | 230° |
| 2026-05-06 18:49 | 48.44761 | 12.19572 | 5652 ft | 220 kts | 230° |
| 2026-05-06 18:49 | 48.43747 | 12.17858 | 5449 ft | 219 kts | 230° |
| 2026-05-06 18:49 | 48.42732 | 12.16144 | 5243 ft | 221 kts | 231° |
| 2026-05-06 18:50 | 48.41707 | 12.14413 | 5040 ft | 221 kts | 232° |
| 2026-05-06 18:50 | 48.40691 | 12.12698 | 4851 ft | 216 kts | 233° |
| 2026-05-06 18:50 | 48.39719 | 12.11064 | 4660 ft | 207 kts | 234° |
| 2026-05-06 18:50 | 48.38911 | 12.09322 | 4431 ft | 198 kts | 250° |
| 2026-05-06 18:51 | 48.38576 | 12.07354 | 4242 ft | 193 kts | 265° |
| 2026-05-06 18:51 | 48.38429 | 12.05345 | 4078 ft | 193 kts | 265° |
| 2026-05-06 18:51 | 48.38281 | 12.03331 | 4009 ft | 193 kts | 265° |
| 2026-05-06 18:51 | 48.38132 | 12.01325 | 3940 ft | 192 kts | 265° |
| 2026-05-06 18:52 | 48.37989 | 11.99403 | 3756 ft | 178 kts | 265° |
| 2026-05-06 18:52 | 48.37899 | 11.98199 | 3603 ft | 172 kts | 265° |
| 2026-05-06 18:52 | 48.37769 | 11.96463 | 3383 ft | 163 kts | 265° |
| 2026-05-06 18:52 | 48.37645 | 11.94808 | 3171 ft | 156 kts | 264° |
| 2026-05-06 18:53 | 48.37524 | 11.93196 | 2964 ft | 150 kts | 264° |
| 2026-05-06 18:53 | 48.37410 | 11.91678 | 2762 ft | 146 kts | 264° |
| 2026-05-06 18:53 | 48.37297 | 11.90181 | 2587 ft | 143 kts | 264° |
| 2026-05-06 18:53 | 48.37186 | 11.88705 | 2369 ft | 142 kts | 264° |
| 2026-05-06 18:54 | 48.37074 | 11.87229 | 2161 ft | 142 kts | 262° |
| 2026-05-06 18:54 | 48.36962 | 11.85747 | 1969 ft | 142 kts | 262° |
| 2026-05-06 18:54 | 48.36845 | 11.84215 | 1809 ft | 151 kts | 264° |
| 2026-05-06 18:54 | 48.36732 | 11.82680 | 1603 ft | 144 kts | 263° |
| 2026-05-06 18:55 | 48.36619 | 11.81225 | 1492 ft | 130 kts | 263° |
| 2026-05-06 18:55 | 48.36529 | 11.80071 | 1485 ft | 88 kts | 263° |
| 2026-05-06 18:55 | 48.36478 | 11.79399 | 1480 ft | 50 kts | 264° |
| 2026-05-06 18:55 | 48.36416 | 11.78973 | 1478 ft | 34 kts | 242° |
| 2026-05-06 18:56 | 48.36318 | 11.78758 | 1478 ft | 16 kts | 236° |
| 2026-05-06 18:56 | 48.36279 | 11.78673 | 1482 ft | 9 kts | 234° |
| 2026-05-06 18:56 | 48.36229 | 11.78566 | 1478 ft | 14 kts | 235° |
| 2026-05-06 18:56 | 48.36157 | 11.78467 | 1478 ft | 15 kts | 193° |
| 2026-05-06 18:57 | 48.36054 | 11.78495 | 1480 ft | 15 kts | 146° |
| 2026-05-06 18:57 | 48.36040 | 11.78665 | 1485 ft | 21 kts | 83° |
| 2026-05-06 18:57 | 48.36059 | 11.78916 | 1480 ft | 27 kts | 82° |
| 2026-05-06 18:57 | 48.36080 | 11.79184 | 1481 ft | 21 kts | 83° |
| 2026-05-06 18:58 | 48.36054 | 11.79319 | 1479 ft | 15 kts | 160° |
| 2026-05-06 18:58 | 48.35966 | 11.79338 | 1482 ft | 2 kts | 173° |
| 2026-05-06 18:58 | 48.35961 | 11.79338 | 1475 ft | 0 kts | 173° |
| 2026-05-06 18:59 | 48.35959 | 11.79339 | 1476 ft | 3 kts | 173° |
| 2026-05-06 18:59 | 48.35913 | 11.79376 | 1481 ft | 11 kts | 127° |
| 2026-05-06 18:59 | 48.35895 | 11.79491 | 1485 ft | 12 kts | 117° |
| 2026-05-06 18:59 | 48.35818 | 11.79525 | 1480 ft | 13 kts | 173° |
| 2026-05-06 19:00 | 48.35712 | 11.79544 | 1474 ft | 20 kts | 173° |
| 2026-05-06 19:00 | 48.35539 | 11.79574 | 1485 ft | 27 kts | 173° |
| 2026-05-06 19:00 | 48.35379 | 11.79616 | 1474 ft | 17 kts | 147° |
| 2026-05-06 19:00 | 48.35357 | 11.79758 | 1485 ft | 5 kts | 83° |
| 2026-05-06 19:01 | 48.35357 | 11.79764 | 1485 ft | 0 kts | 83° |